Time;durP1;ratioP1;P1;durP2;ratioP2;P2;SDS_P1;SDS_P2;PMS_P1;PMS_P2;Temp;Humidity;BMP_temperature;BMP_pressure;BME280_temperature;BME280_humidity;BME280_pressure;Samples;Min_cycle;Max_cycle;Signal;HPM_P1;HPM_P2
2023/11/28 00:01:46;;;;;;;1.33;0.95;;;2.60;99.90;;;;;;4931150;29;20236;-71
2023/11/28 00:04:14;;;;;;;0.85;0.70;;;2.60;99.90;;;;;;4930474;29;20228;-72
2023/11/28 00:06:41;;;;;;;0.90;0.75;;;2.50;99.90;;;;;;4929445;29;20205;-72
2023/11/28 00:09:07;;;;;;;0.77;0.68;;;2.50;99.90;;;;;;4932164;29;20220;-72
2023/11/28 00:11:34;;;;;;;0.70;0.60;;;2.50;99.90;;;;;;4933609;29;20236;-71
2023/11/28 00:14:02;;;;;;;0.80;0.70;;;2.50;99.90;;;;;;4931510;29;20201;-72
2023/11/28 04:32:46;;;;;;;1.15;0.90;;;3.70;99.90;;;;;;5069237;23;20230;-72
2023/11/28 04:35:12;;;;;;;0.70;0.60;;;3.70;99.90;;;;;;4956598;28;20199;-73
2023/11/28 04:37:39;;;;;;;1.00;0.90;;;3.70;99.90;;;;;;4955404;28;20224;-72
2023/11/28 04:40:07;;;;;;;1.23;0.85;;;3.70;99.90;;;;;;4956547;28;20216;-72
2023/11/28 04:42:34;;;;;;;0.80;0.70;;;3.80;99.90;;;;;;4960803;28;20228;-72
2023/11/28 04:45:00;;;;;;;0.70;0.60;;;3.70;99.90;;;;;;4963133;28;20226;-72
2023/11/28 04:47:28;;;;;;;1.05;0.77;;;3.80;99.90;;;;;;4958188;28;20208;-71
2023/11/28 04:49:56;;;;;;;0.80;0.70;;;3.80;99.90;;;;;;4960733;28;20216;-72
2023/11/28 04:52:22;;;;;;;0.70;0.60;;;3.80;99.90;;;;;;4958576;28;20233;-72
2023/11/28 04:54:49;;;;;;;0.77;0.73;;;3.80;99.90;;;;;;4959791;28;20211;-72
2023/11/28 04:57:16;;;;;;;0.80;0.70;;;3.80;99.90;;;;;;4958911;28;20298;-72
2023/11/28 04:59:43;;;;;;;1.67;0.88;;;3.80;99.90;;;;;;4958982;28;20215;-71
2023/11/28 05:02:09;;;;;;;0.70;0.60;;;3.80;99.90;;;;;;4960567;28;20601;-72
2023/11/28 05:04:36;;;;;;;1.00;0.70;;;3.80;99.90;;;;;;4957349;28;20231;-72
2023/11/28 05:07:04;;;;;;;0.80;0.80;;;3.70;99.90;;;;;;4957700;28;20562;-73
2023/11/28 05:09:31;;;;;;;1.00;0.90;;;3.80;99.90;;;;;;4955807;28;20213;-73
2023/11/28 05:11:58;;;;;;;0.80;0.70;;;3.80;99.90;;;;;;4955916;28;20984;-75
2023/11/28 05:14:24;;;;;;;0.70;0.60;;;3.80;99.90;;;;;;4962002;28;20208;-73
2023/11/28 05:16:51;;;;;;;1.00;0.70;;;3.80;99.90;;;;;;4954635;28;20204;-72
2023/11/28 05:19:18;;;;;;;0.70;0.60;;;3.80;99.90;;;;;;4955133;28;20204;-72
2023/11/28 05:21:44;;;;;;;1.00;0.80;;;3.80;99.90;;;;;;4954731;28;20228;-73
2023/11/28 05:24:12;;;;;;;0.70;0.60;;;3.80;99.90;;;;;;4958867;28;20593;-73
2023/11/28 05:26:40;;;;;;;0.80;0.60;;;3.80;99.90;;;;;;4958336;28;20204;-72
2023/11/28 05:29:07;;;;;;;0.90;0.80;;;3.90;99.90;;;;;;4970839;28;20303;-72
2023/11/28 05:31:33;;;;;;;0.95;0.85;;;3.90;99.90;;;;;;4980059;28;20228;-72
2023/11/28 05:34:00;;;;;;;0.85;0.73;;;3.90;99.90;;;;;;4981326;28;20254;-72
2023/11/28 05:36:27;;;;;;;1.48;1.38;;;4.00;99.90;;;;;;4987213;28;20267;-72
2023/11/28 05:38:54;;;;;;;2.50;0.90;;;4.00;99.90;;;;;;4978904;28;20241;-72
2023/11/28 05:41:23;;;;;;;1.25;1.00;;;4.00;99.90;;;;;;4969486;28;20223;-72
2023/11/28 05:43:50;;;;;;;2.60;1.05;;;4.00;99.90;;;;;;4975480;28;20228;-72
2023/11/28 05:46:17;;;;;;;0.88;0.80;;;4.00;99.90;;;;;;4974475;28;20361;-73
2023/11/28 05:48:43;;;;;;;1.90;0.95;;;4.00;99.90;;;;;;4974745;28;20208;-72
2023/11/28 05:51:10;;;;;;;1.40;1.00;;;4.00;99.90;;;;;;4975253;28;20243;-73
2023/11/28 05:53:37;;;;;;;1.17;1.00;;;4.00;99.90;;;;;;4975479;28;20666;-72
2023/11/28 05:56:04;;;;;;;1.25;1.00;;;4.00;99.90;;;;;;4974668;28;20218;-73
2023/11/28 05:58:32;;;;;;;1.15;1.05;;;4.00;99.90;;;;;;4982276;28;20207;-73
2023/11/28 06:01:01;;;;;;;2.17;1.10;;;4.00;99.90;;;;;;4976877;28;20705;-73
2023/11/28 06:03:27;;;;;;;1.80;1.27;;;3.90;99.90;;;;;;4982702;28;20222;-72
2023/11/28 06:05:54;;;;;;;1.33;1.15;;;3.90;99.90;;;;;;4977216;28;20211;-73
2023/11/28 06:08:21;;;;;;;1.10;1.00;;;3.80;99.90;;;;;;4974572;28;20211;-72
2023/11/28 06:10:48;;;;;;;0.90;0.80;;;3.80;99.90;;;;;;4974851;28;20712;-72
2023/11/28 06:13:16;;;;;;;1.00;0.90;;;3.70;99.90;;;;;;4974775;28;20211;-72
2023/11/28 06:15:44;;;;;;;1.30;1.10;;;3.70;99.90;;;;;;4974477;28;20203;-72
2023/11/28 06:18:11;;;;;;;1.00;0.90;;;3.60;99.90;;;;;;4974341;28;20239;-72
2023/11/28 06:20:37;;;;;;;1.20;1.10;;;3.60;99.90;;;;;;4974844;28;20248;-72
2023/11/28 06:23:04;;;;;;;1.20;1.08;;;3.60;99.90;;;;;;4974523;28;20750;-72
2023/11/28 06:25:32;;;;;;;1.50;1.33;;;3.60;99.90;;;;;;4974502;28;20219;-72
2023/11/28 06:27:59;;;;;;;1.23;1.13;;;3.60;99.90;;;;;;4974033;28;20219;-72
2023/11/28 06:30:25;;;;;;;1.33;1.23;;;3.50;99.90;;;;;;4969814;28;20561;-72
2023/11/28 06:32:54;;;;;;;1.25;1.13;;;3.50;99.90;;;;;;4974207;28;20211;-72
2023/11/28 06:35:21;;;;;;;0.90;0.90;;;3.50;99.90;;;;;;4974252;28;20672;-71
2023/11/28 06:37:48;;;;;;;1.23;1.10;;;3.50;99.90;;;;;;4974055;28;20208;-71
2023/11/28 06:40:15;;;;;;;1.75;1.33;;;3.40;99.90;;;;;;4973900;28;20216;-71
2023/11/28 06:42:43;;;;;;;1.38;1.20;;;3.40;99.90;;;;;;4974409;28;20208;-72
2023/11/28 06:45:11;;;;;;;1.20;1.10;;;3.40;99.90;;;;;;4974175;28;20234;-71
2023/11/28 06:47:38;;;;;;;1.08;0.98;;;3.40;99.90;;;;;;4974111;28;20203;-71
2023/11/28 06:50:07;;;;;;;1.33;1.10;;;3.40;99.90;;;;;;4974368;28;20208;-71
2023/11/28 06:52:36;;;;;;;1.10;1.00;;;3.30;99.90;;;;;;4974424;28;20228;-71
2023/11/28 06:55:05;;;;;;;1.25;1.13;;;3.30;99.90;;;;;;4976943;28;20204;-72
2023/11/28 06:57:32;;;;;;;1.08;0.98;;;3.30;99.90;;;;;;4979174;28;20206;-72
2023/11/28 06:59:59;;;;;;;1.27;1.17;;;3.30;99.90;;;;;;4973270;28;20212;-71
2023/11/28 07:02:25;;;;;;;0.80;0.80;;;3.20;99.90;;;;;;4978209;28;20242;-72
2023/11/28 07:04:52;;;;;;;1.15;0.80;;;3.10;99.90;;;;;;4974433;28;20227;-71
2023/11/28 07:07:21;;;;;;;1.00;0.85;;;3.00;99.90;;;;;;4972372;28;20607;-71
2023/11/28 07:09:47;;;;;;;0.80;0.70;;;2.90;99.90;;;;;;4973705;28;20200;-71
2023/11/28 07:12:14;;;;;;;0.85;0.80;;;2.80;99.90;;;;;;4973615;28;20227;-71
2023/11/28 07:14:41;;;;;;;0.70;0.70;;;2.80;99.90;;;;;;4974152;28;20203;-71
2023/11/28 07:17:08;;;;;;;0.90;0.70;;;2.70;99.90;;;;;;4973056;28;20208;-71
2023/11/28 07:19:35;;;;;;;0.80;0.70;;;2.50;99.90;;;;;;4973651;28;20278;-71
2023/11/28 07:22:01;;;;;;;0.70;0.70;;;2.40;99.90;;;;;;4973432;28;20238;-71
2023/11/28 07:24:29;;;;;;;0.90;0.70;;;2.30;99.90;;;;;;4972966;28;20334;-71
2023/11/28 07:26:56;;;;;;;0.80;0.80;;;2.20;99.90;;;;;;4972881;28;20222;-71
2023/11/28 07:29:23;;;;;;;0.80;0.70;;;2.10;99.90;;;;;;4973328;28;20212;-71
2023/11/28 07:31:49;;;;;;;0.95;0.90;;;2.00;99.90;;;;;;4973004;28;20234;-71
2023/11/28 07:34:16;;;;;;;0.80;0.80;;;1.90;99.90;;;;;;4973260;28;20204;-71
2023/11/28 07:36:47;;;;;;;0.80;0.80;;;1.90;99.90;;;;;;4972659;28;20227;-71
2023/11/28 07:39:14;;;;;;;2.00;0.80;;;1.90;99.90;;;;;;4973347;28;20230;-71
2023/11/28 07:41:42;;;;;;;0.80;0.70;;;1.80;99.90;;;;;;4972982;28;20224;-71
2023/11/28 07:44:08;;;;;;;0.80;0.70;;;1.70;99.90;;;;;;4973115;28;20564;-71
2023/11/28 07:46:35;;;;;;;1.35;0.80;;;1.80;99.90;;;;;;4972741;28;20204;-71
2023/11/28 07:49:02;;;;;;;0.80;0.70;;;1.70;99.90;;;;;;4968980;28;20208;-72
2023/11/28 07:51:29;;;;;;;1.00;0.90;;;1.70;99.90;;;;;;4971923;28;20335;-71
2023/11/28 07:53:55;;;;;;;0.80;0.70;;;1.60;99.90;;;;;;4972979;28;20204;-71
2023/11/28 07:56:22;;;;;;;1.30;1.02;;;1.60;99.90;;;;;;4972552;28;20262;-71
2023/11/28 07:58:51;;;;;;;0.82;0.80;;;1.60;99.90;;;;;;4972674;28;20215;-71
2023/11/28 08:01:17;;;;;;;0.90;0.80;;;1.60;99.90;;;;;;4972650;28;20720;-71
2023/11/28 08:03:44;;;;;;;0.80;0.80;;;1.60;99.90;;;;;;4972723;28;20207;-71
2023/11/28 08:06:13;;;;;;;1.20;1.10;;;1.60;99.90;;;;;;4972537;28;20219;-71
2023/11/28 08:08:39;;;;;;;0.98;0.90;;;1.50;99.90;;;;;;4972627;28;20203;-71
2023/11/28 08:11:10;;;;;;;1.70;0.80;;;1.50;99.90;;;;;;4972644;28;20710;-71
2023/11/28 08:13:37;;;;;;;0.90;0.70;;;1.50;99.90;;;;;;4972683;28;20684;-71
2023/11/28 08:16:06;;;;;;;1.00;0.90;;;1.50;99.90;;;;;;4967688;28;20210;-71
2023/11/28 08:18:32;;;;;;;1.00;0.90;;;1.50;99.90;;;;;;4969408;28;20208;-73
2023/11/28 08:21:02;;;;;;;0.82;0.80;;;1.50;99.90;;;;;;4971148;28;20227;-72
2023/11/28 08:23:28;;;;;;;1.02;0.93;;;1.50;99.90;;;;;;4971190;28;20270;-73
2023/11/28 08:25:55;;;;;;;0.90;0.80;;;1.60;99.90;;;;;;4971085;28;20231;-72
2023/11/28 08:28:23;;;;;;;0.80;0.77;;;1.60;99.90;;;;;;4972347;28;20212;-71
2023/11/28 08:30:50;;;;;;;1.10;1.00;;;1.60;99.90;;;;;;4972039;28;20239;-71
2023/11/28 08:33:19;;;;;;;1.10;1.00;;;1.60;99.90;;;;;;4972537;28;20214;-71
2023/11/28 08:35:48;;;;;;;2.17;0.95;;;1.50;99.90;;;;;;4972244;28;20298;-71
2023/11/28 08:38:15;;;;;;;1.05;0.77;;;1.50;99.90;;;;;;4972226;28;20582;-71
2023/11/28 08:40:42;;;;;;;1.25;0.90;;;1.60;99.90;;;;;;4972522;28;20239;-71
2023/11/28 08:43:09;;;;;;;1.10;1.00;;;1.60;99.90;;;;;;4972445;28;20211;-72
2023/11/28 08:45:35;;;;;;;1.02;0.93;;;1.60;99.90;;;;;;4972681;28;20216;-71
2023/11/28 08:48:02;;;;;;;1.13;1.02;;;1.60;99.90;;;;;;4971988;28;20238;-71
2023/11/28 08:50:30;;;;;;;0.70;0.70;;;1.60;99.90;;;;;;4972115;28;20219;-74
2023/11/28 08:52:57;;;;;;;1.08;0.80;;;1.60;99.90;;;;;;4972114;28;20211;-74
2023/11/28 08:55:23;;;;;;;0.80;0.80;;;1.60;99.90;;;;;;4972015;28;20359;-71
2023/11/28 08:57:50;;;;;;;1.00;0.90;;;1.60;99.90;;;;;;4971532;28;20219;-73
2023/11/28 09:00:17;;;;;;;1.50;1.25;;;1.60;99.90;;;;;;4971826;28;20211;-71
2023/11/28 09:02:45;;;;;;;1.15;1.00;;;1.60;99.90;;;;;;4975727;28;20211;-71
2023/11/28 09:05:12;;;;;;;1.33;1.00;;;1.60;99.90;;;;;;4978424;28;20302;-73
2023/11/28 09:07:40;;;;;;;0.90;0.82;;;1.60;99.90;;;;;;4977842;28;20212;-74
2023/11/28 09:10:07;;;;;;;1.00;0.80;;;1.60;99.90;;;;;;4978440;28;20207;-73
2023/11/28 09:12:35;;;;;;;0.80;0.70;;;1.60;99.90;;;;;;4978323;28;20242;-74
2023/11/28 09:15:02;;;;;;;0.80;0.70;;;1.60;99.90;;;;;;4972958;28;20251;-74
2023/11/28 09:17:29;;;;;;;0.80;0.75;;;1.60;99.90;;;;;;4977674;28;20219;-74
2023/11/28 09:19:56;;;;;;;0.80;0.80;;;1.60;99.90;;;;;;4978270;28;20619;-74
2023/11/28 09:22:22;;;;;;;0.80;0.70;;;1.50;99.90;;;;;;4978134;28;20238;-74
2023/11/28 09:24:50;;;;;;;1.23;0.88;;;1.60;99.90;;;;;;4977919;28;20637;-74
2023/11/28 09:27:17;;;;;;;0.90;0.75;;;1.50;99.90;;;;;;4978135;28;20208;-74
2023/11/28 09:29:44;;;;;;;0.80;0.80;;;1.50;99.90;;;;;;4971190;28;20210;-75
2023/11/28 09:32:12;;;;;;;1.40;1.15;;;1.50;99.90;;;;;;4973171;28;20341;-72
2023/11/28 09:34:42;;;;;;;1.20;0.80;;;1.50;99.90;;;;;;4974180;28;20580;-72
2023/11/28 09:37:08;;;;;;;0.80;0.80;;;1.40;99.90;;;;;;4973686;28;20715;-74
2023/11/28 09:39:35;;;;;;;1.10;1.02;;;1.40;99.90;;;;;;4973970;28;20203;-75
2023/11/28 09:42:10;;;;;;;1.20;1.10;;;1.40;99.90;;;;;;4973853;28;20646;-72
2023/11/28 09:44:37;;;;;;;1.55;1.30;;;1.40;99.90;;;;;;4973560;28;20199;-71
2023/11/28 09:47:08;;;;;;;5.18;1.00;;;1.40;99.90;;;;;;4973558;28;20207;-74
2023/11/28 09:49:40;;;;;;;0.82;0.77;;;1.40;99.90;;;;;;4974143;28;20204;-71
2023/11/28 09:52:08;;;;;;;9.68;1.10;;;1.40;99.90;;;;;;4973760;28;20246;-71
2023/11/28 09:54:37;;;;;;;1.00;0.90;;;1.40;99.90;;;;;;4973883;28;20235;-71
2023/11/28 09:57:06;;;;;;;1.13;1.02;;;1.40;99.90;;;;;;4972572;28;20208;-71
2023/11/28 09:59:36;;;;;;;1.10;1.00;;;1.30;99.90;;;;;;4973583;28;20215;-72
2023/11/28 10:02:04;;;;;;;0.80;0.80;;;1.30;99.90;;;;;;4972755;28;20219;-72
2023/11/28 10:04:31;;;;;;;1.00;0.90;;;1.30;99.90;;;;;;4973631;28;20695;-72
2023/11/28 10:07:01;;;;;;;1.10;0.88;;;1.30;99.90;;;;;;4972777;28;20255;-72
2023/11/28 10:09:30;;;;;;;1.75;1.35;;;1.30;99.90;;;;;;4973979;28;20669;-72
2023/11/28 10:11:59;;;;;;;1.67;1.00;;;1.30;99.90;;;;;;4973092;28;20231;-72
2023/11/28 10:14:28;;;;;;;1.00;0.90;;;1.30;99.90;;;;;;4970372;28;20302;-71
2023/11/28 10:16:54;;;;;;;0.80;0.80;;;1.30;99.90;;;;;;4969493;28;20317;-70
2023/11/28 10:19:22;;;;;;;1.15;1.05;;;1.30;99.90;;;;;;4970748;28;20214;-71
2023/11/28 10:21:49;;;;;;;1.30;0.85;;;1.30;99.90;;;;;;4969331;28;20720;-72
2023/11/28 10:24:18;;;;;;;1.30;1.02;;;1.30;99.90;;;;;;4969571;28;20677;-72
2023/11/28 10:26:45;;;;;;;1.10;1.00;;;1.30;99.90;;;;;;4966792;28;20234;-71
2023/11/28 10:29:12;;;;;;;1.20;1.10;;;1.30;99.90;;;;;;4970220;28;20215;-71
2023/11/28 10:31:41;;;;;;;1.80;0.93;;;1.30;99.90;;;;;;4973254;28;20231;-71
2023/11/28 10:34:09;;;;;;;1.58;1.33;;;1.40;99.90;;;;;;4968027;28;20715;-72
2023/11/28 10:36:44;;;;;;;1.05;0.95;;;1.40;99.90;;;;;;4970795;28;20203;-71
2023/11/28 10:39:12;;;;;;;0.90;0.90;;;1.50;99.90;;;;;;4968101;28;20287;-72
2023/11/28 10:41:41;;;;;;;1.10;1.00;;;1.50;99.90;;;;;;4965613;28;20272;-72
2023/11/28 10:44:08;;;;;;;1.83;1.30;;;1.50;99.90;;;;;;4968891;28;20209;-72
2023/11/28 10:46:36;;;;;;;1.00;0.90;;;1.50;99.90;;;;;;4968849;28;20587;-72
2023/11/28 10:49:05;;;;;;;1.80;1.17;;;1.50;99.90;;;;;;4969140;28;20222;-75
2023/11/28 10:51:33;;;;;;;1.30;0.98;;;1.40;99.90;;;;;;4969327;28;20251;-72
2023/11/28 10:54:07;;;;;;;1.10;1.00;;;1.40;99.90;;;;;;4963362;28;20586;-72
2023/11/28 10:56:45;;;;;;;1.00;0.90;;;1.40;99.90;;;;;;4966468;28;20212;-73
2023/11/28 10:59:18;;;;;;;1.20;1.05;;;1.30;99.90;;;;;;4967016;28;20204;-72
2023/11/28 11:01:46;;;;;;;1.48;1.38;;;1.20;99.90;;;;;;4970255;28;20311;-71
2023/11/28 11:04:14;;;;;;;1.27;1.17;;;1.20;99.90;;;;;;4968489;28;20307;-73
2023/11/28 11:06:41;;;;;;;1.00;0.90;;;1.20;99.90;;;;;;4965915;28;20688;-72
2023/11/28 11:09:09;;;;;;;1.30;1.20;;;1.20;99.90;;;;;;4969451;28;20211;-73
2023/11/28 11:11:36;;;;;;;1.70;1.40;;;1.20;99.90;;;;;;4969938;28;20731;-72
2023/11/28 11:14:20;;;;;;;1.63;1.52;;;1.20;99.90;;;;;;4969091;28;20214;-72
2023/11/28 11:16:55;;;;;;;1.30;1.20;;;1.20;99.90;;;;;;4968354;28;20700;-72
2023/11/28 11:19:24;;;;;;;1.92;1.30;;;1.10;99.90;;;;;;4970344;28;20199;-71
2023/11/28 11:21:56;;;;;;;1.23;1.13;;;1.10;99.90;;;;;;4969531;28;20398;-73
2023/11/28 11:24:22;;;;;;;1.85;1.58;;;1.10;99.90;;;;;;4970340;28;20258;-74
2023/11/28 11:26:50;;;;;;;2.55;1.10;;;1.10;99.90;;;;;;4969248;28;20235;-72
2023/11/28 11:29:34;;;;;;;1.50;1.40;;;1.00;99.90;;;;;;4971098;28;20219;-74
2023/11/28 11:32:01;;;;;;;2.00;1.80;;;1.00;99.90;;;;;;4933502;28;1046493;-72
2023/11/28 11:34:36;;;;;;;1.50;1.40;;;1.00;99.90;;;;;;4970803;28;20203;-74
2023/11/28 11:37:10;;;;;;;1.58;1.45;;;1.00;99.90;;;;;;4968701;28;20301;-74
2023/11/28 11:39:38;;;;;;;1.40;1.30;;;1.00;99.90;;;;;;4970598;28;20204;-74
2023/11/28 11:42:08;;;;;;;4.03;1.80;;;1.00;99.90;;;;;;4970131;28;20228;-70
2023/11/28 11:44:36;;;;;;;4.22;2.03;;;1.00;99.90;;;;;;4973004;28;20247;-72
2023/11/28 11:47:14;;;;;;;1.40;1.30;;;1.00;99.90;;;;;;4971437;28;20236;-71
2023/11/28 11:49:44;;;;;;;1.52;1.42;;;1.00;99.90;;;;;;4959138;28;20236;-72
2023/11/28 11:52:13;;;;;;;1.45;1.20;;;1.00;99.90;;;;;;4966948;28;20294;-71
2023/11/28 11:54:40;;;;;;;1.58;1.45;;;1.00;99.90;;;;;;4972074;28;20204;-73
2023/11/28 11:57:06;;;;;;;1.60;1.50;;;1.00;99.90;;;;;;4972290;28;20207;-74
2023/11/28 11:59:33;;;;;;;1.50;1.40;;;1.00;99.90;;;;;;4972994;28;20211;-73
2023/11/28 12:02:01;;;;;;;1.85;1.65;;;0.90;99.90;;;;;;4967978;28;20219;-71
2023/11/28 12:04:28;;;;;;;2.67;1.95;;;0.90;99.90;;;;;;4968720;28;20207;-73
2023/11/28 12:07:04;;;;;;;2.08;1.90;;;1.00;99.90;;;;;;4967694;28;20279;-74
2023/11/28 12:09:31;;;;;;;1.60;1.50;;;1.00;99.90;;;;;;4968620;28;20611;-74
2023/11/28 12:11:58;;;;;;;1.70;1.60;;;1.00;99.90;;;;;;4967898;28;20231;-73
2023/11/28 12:14:25;;;;;;;1.50;1.40;;;1.00;99.90;;;;;;4968354;28;20218;-73
2023/11/28 12:16:53;;;;;;;2.40;2.20;;;1.00;99.90;;;;;;4967403;28;20235;-74
2023/11/28 12:19:20;;;;;;;2.33;1.27;;;1.00;99.90;;;;;;4968955;28;20211;-74
2023/11/28 12:21:47;;;;;;;1.45;1.35;;;1.00;99.90;;;;;;4967965;28;20740;-73
2023/11/28 12:24:16;;;;;;;2.30;2.10;;;0.90;99.90;;;;;;4968039;28;20204;-74
2023/11/28 12:26:43;;;;;;;1.45;1.35;;;0.90;99.90;;;;;;4967258;28;20223;-74
2023/11/28 12:29:10;;;;;;;1.30;1.20;;;0.80;99.90;;;;;;4968767;28;20294;-74
2023/11/28 12:31:37;;;;;;;1.50;1.40;;;0.80;99.90;;;;;;4968560;28;20731;-74
2023/11/28 12:34:05;;;;;;;1.92;1.77;;;0.80;99.90;;;;;;4968240;28;20223;-73
2023/11/28 12:36:32;;;;;;;2.22;2.13;;;0.70;99.90;;;;;;4967628;28;20227;-74
2023/11/28 12:39:01;;;;;;;2.38;2.17;;;0.70;99.90;;;;;;4967848;28;20200;-74
2023/11/28 12:41:40;;;;;;;2.30;2.10;;;0.70;99.90;;;;;;4968270;28;20250;-73
2023/11/28 12:44:09;;;;;;;2.53;2.33;;;0.70;99.90;;;;;;4966050;28;20298;-74
2023/11/28 12:46:38;;;;;;;2.30;2.10;;;0.70;99.90;;;;;;4966028;28;20314;-72
2023/11/28 12:49:05;;;;;;;2.20;2.00;;;0.70;99.90;;;;;;4966087;28;20294;-73
2023/11/28 12:51:32;;;;;;;2.75;2.13;;;0.70;99.90;;;;;;4965739;28;20227;-73
2023/11/28 12:54:03;;;;;;;2.55;2.35;;;0.70;99.90;;;;;;4967372;28;20270;-73
2023/11/28 12:56:34;;;;;;;4.22;2.03;;;0.70;99.90;;;;;;4967572;28;20200;-74
2023/11/28 12:59:03;;;;;;;2.50;2.30;;;0.70;99.90;;;;;;4967162;28;20216;-73
2023/11/28 13:01:31;;;;;;;3.00;2.35;;;0.70;99.90;;;;;;4967498;28;20223;-73
2023/11/28 13:03:58;;;;;;;2.70;2.33;;;0.80;99.90;;;;;;4967338;28;20211;-74
2023/11/28 13:06:26;;;;;;;2.72;2.53;;;0.80;99.90;;;;;;4967498;28;20246;-73
2023/11/28 13:08:53;;;;;;;2.78;2.58;;;0.80;99.90;;;;;;4969210;28;20298;-73
2023/11/28 13:11:21;;;;;;;1.70;1.60;;;0.80;99.90;;;;;;4968746;28;20223;-73
2023/11/28 13:13:48;;;;;;;4.15;2.25;;;0.80;99.90;;;;;;4967325;28;20208;-73
2023/11/28 13:16:16;;;;;;;2.53;2.33;;;0.80;99.90;;;;;;4966935;28;20203;-73
2023/11/28 13:18:43;;;;;;;2.50;2.30;;;0.80;99.90;;;;;;4967247;28;20219;-73
2023/11/28 13:21:10;;;;;;;2.15;1.95;;;0.80;99.90;;;;;;4967318;28;20230;-74
2023/11/28 13:23:37;;;;;;;2.13;2.03;;;0.80;99.90;;;;;;4967427;28;20212;-73
2023/11/28 13:26:04;;;;;;;2.60;2.40;;;0.90;99.90;;;;;;4970453;28;20598;-74
2023/11/28 13:28:31;;;;;;;5.75;2.33;;;0.90;99.90;;;;;;4971945;28;20208;-74
2023/11/28 13:30:58;;;;;;;2.05;1.85;;;0.90;99.90;;;;;;4970944;28;20249;-73
2023/11/28 13:33:28;;;;;;;4.00;2.33;;;0.90;99.90;;;;;;4971848;28;20214;-74
2023/11/28 13:35:56;;;;;;;1.83;1.73;;;0.80;99.90;;;;;;4970907;28;20204;-74
2023/11/28 13:38:23;;;;;;;2.25;2.05;;;0.90;99.90;;;;;;4971656;28;20838;-74
2023/11/28 13:40:52;;;;;;;3.08;2.80;;;0.90;99.90;;;;;;4971352;28;20728;-73
2023/11/28 13:43:20;;;;;;;2.40;2.20;;;0.90;99.90;;;;;;4971773;28;20295;-74
2023/11/28 13:45:48;;;;;;;2.50;2.28;;;0.90;99.90;;;;;;4971183;28;20221;-74
2023/11/28 13:48:15;;;;;;;2.00;1.90;;;0.90;99.90;;;;;;4970932;28;20228;-73
2023/11/28 13:50:43;;;;;;;1.75;1.60;;;0.90;99.90;;;;;;4975015;28;20227;-74
2023/11/28 13:53:10;;;;;;;3.67;2.45;;;0.90;99.90;;;;;;4976691;28;20212;-74
2023/11/28 13:55:37;;;;;;;2.33;1.83;;;0.90;99.90;;;;;;4975420;28;20235;-74
2023/11/28 13:58:04;;;;;;;1.90;1.70;;;0.90;99.90;;;;;;4974278;28;20624;-74
2023/11/28 14:00:31;;;;;;;2.70;2.50;;;0.90;99.90;;;;;;4975045;28;20616;-73
2023/11/28 14:02:58;;;;;;;2.65;2.45;;;0.90;99.90;;;;;;4974921;28;20306;-74
2023/11/28 14:05:25;;;;;;;2.83;2.38;;;0.90;99.90;;;;;;4974961;28;20207;-73
2023/11/28 14:07:53;;;;;;;2.40;2.20;;;0.90;99.90;;;;;;4974323;28;20228;-73
2023/11/28 14:10:20;;;;;;;2.85;2.47;;;0.90;99.90;;;;;;4975080;28;20583;-74
2023/11/28 14:12:47;;;;;;;2.75;2.55;;;0.90;99.90;;;;;;4974923;28;20258;-74
2023/11/28 14:15:13;;;;;;;2.72;2.25;;;0.90;99.90;;;;;;4974765;28;20752;-74
2023/11/28 14:17:39;;;;;;;2.53;2.25;;;0.90;99.90;;;;;;4974533;28;20298;-74
2023/11/28 14:20:08;;;;;;;2.60;2.40;;;0.90;99.90;;;;;;4974391;28;20286;-74
2023/11/28 14:22:36;;;;;;;2.15;1.95;;;0.90;99.90;;;;;;4974664;28;20258;-74
2023/11/28 14:25:04;;;;;;;2.65;1.80;;;0.80;99.90;;;;;;4974112;28;20217;-73
2023/11/28 14:27:31;;;;;;;2.63;2.10;;;0.80;99.90;;;;;;4974295;28;20742;-74
2023/11/28 14:29:57;;;;;;;2.35;2.10;;;0.90;99.90;;;;;;4974367;28;20212;-74
2023/11/28 14:32:24;;;;;;;2.92;2.65;;;0.90;99.90;;;;;;4974631;28;20609;-74
2023/11/28 14:34:51;;;;;;;2.38;2.17;;;0.90;99.90;;;;;;4974057;28;20204;-73
2023/11/28 14:37:18;;;;;;;2.75;2.10;;;0.90;99.90;;;;;;4974079;28;20203;-74
2023/11/28 14:39:46;;;;;;;3.85;2.38;;;0.80;99.90;;;;;;4974530;28;20204;-74
2023/11/28 14:42:14;;;;;;;2.45;2.22;;;0.80;99.90;;;;;;4976626;28;20315;-74
2023/11/28 14:44:41;;;;;;;3.05;2.75;;;0.80;99.90;;;;;;4988407;28;20222;-74
2023/11/28 14:47:07;;;;;;;2.75;2.20;;;0.70;99.90;;;;;;4972990;28;20242;-74
2023/11/28 14:49:34;;;;;;;3.08;2.42;;;0.80;99.90;;;;;;4974274;28;20254;-74
2023/11/28 14:52:01;;;;;;;3.10;2.35;;;0.70;99.90;;;;;;4973570;28;20650;-74
2023/11/28 14:54:28;;;;;;;3.08;2.78;;;0.70;99.90;;;;;;4974137;28;20210;-73
2023/11/28 14:56:54;;;;;;;2.83;2.53;;;0.70;99.90;;;;;;4973340;28;20708;-74
2023/11/28 14:59:23;;;;;;;2.65;2.45;;;0.70;99.90;;;;;;4973788;28;20210;-74
2023/11/28 15:01:50;;;;;;;2.13;1.70;;;0.70;99.90;;;;;;4973508;28;20282;-74
2023/11/28 15:04:17;;;;;;;2.38;2.05;;;0.70;99.90;;;;;;4973911;28;20211;-74
2023/11/28 15:06:44;;;;;;;3.90;2.95;;;0.70;99.90;;;;;;4973304;28;20223;-74
2023/11/28 15:09:15;;;;;;;2.53;2.33;;;0.70;99.90;;;;;;4973064;28;20226;-73
2023/11/28 15:14:45;;;;;;;4.68;3.00;;;0.60;99.90;;;;;;4947592;29;20248;-74
2023/11/28 15:17:13;;;;;;;2.65;2.28;;;0.60;99.90;;;;;;4948334;29;20196;-74
2023/11/28 15:19:39;;;;;;;3.25;2.38;;;0.60;99.90;;;;;;4984296;28;20664;-74
2023/11/28 15:22:07;;;;;;;3.35;3.05;;;0.70;99.90;;;;;;4972249;28;20255;-74
2023/11/28 15:24:35;;;;;;;2.75;2.53;;;0.80;99.90;;;;;;4973623;28;20266;-74
2023/11/28 15:27:02;;;;;;;3.28;2.97;;;0.80;99.90;;;;;;4972677;28;20251;-73
2023/11/28 15:29:28;;;;;;;3.83;2.47;;;0.70;99.90;;;;;;4973617;28;20207;-73
2023/11/28 15:32:00;;;;;;;3.70;3.05;;;0.70;99.90;;;;;;4972116;28;20420;-73
2023/11/28 15:34:27;;;;;;;3.28;2.13;;;0.70;99.90;;;;;;4973375;28;20208;-73
2023/11/28 15:36:55;;;;;;;2.63;2.42;;;0.60;99.90;;;;;;4972728;28;20633;-73
2023/11/28 15:39:22;;;;;;;2.67;2.47;;;0.60;99.90;;;;;;4973439;28;20200;-73
2023/11/28 15:41:48;;;;;;;2.40;2.20;;;0.60;99.90;;;;;;4973140;28;20313;-73
2023/11/28 15:44:15;;;;;;;2.63;2.42;;;0.60;99.90;;;;;;4972768;28;20204;-73
2023/11/28 15:46:43;;;;;;;4.00;3.42;;;0.60;99.90;;;;;;4972552;28;20700;-73
2023/11/28 15:49:12;;;;;;;2.28;2.08;;;0.60;99.90;;;;;;4972735;28;20219;-74
2023/11/28 15:51:38;;;;;;;4.30;2.65;;;0.60;99.90;;;;;;4973027;28;20246;-73
2023/11/28 15:54:05;;;;;;;3.15;2.85;;;0.60;99.90;;;;;;4973057;28;20208;-71
2023/11/28 15:56:32;;;;;;;2.70;2.20;;;0.50;99.90;;;;;;4972608;28;20212;-72
2023/11/28 15:58:59;;;;;;;3.47;3.03;;;0.50;99.90;;;;;;4972759;28;20682;-72
2023/11/28 16:01:26;;;;;;;3.75;2.80;;;0.50;99.90;;;;;;4972922;28;20227;-72
2023/11/28 16:03:53;;;;;;;4.13;2.78;;;0.50;99.90;;;;;;4973167;28;20215;-72
2023/11/28 16:06:21;;;;;;;2.85;2.65;;;0.50;99.90;;;;;;4972274;28;20682;-73
2023/11/28 16:08:48;;;;;;;4.25;2.75;;;0.50;99.90;;;;;;4972689;28;20224;-72
2023/11/28 16:11:14;;;;;;;3.17;2.88;;;0.50;99.90;;;;;;4971886;28;20228;-72
2023/11/28 16:13:41;;;;;;;3.13;2.80;;;0.50;99.90;;;;;;4972555;28;20211;-72
2023/11/28 16:16:13;;;;;;;3.95;3.38;;;0.50;99.90;;;;;;4972288;28;20223;-72
2023/11/28 16:18:40;;;;;;;3.38;3.08;;;0.50;99.90;;;;;;4973158;28;20661;-72
2023/11/28 16:21:07;;;;;;;2.83;2.63;;;0.50;99.90;;;;;;4972411;28;20231;-72
2023/11/28 16:23:35;;;;;;;3.25;2.97;;;0.50;99.90;;;;;;4972820;28;20212;-71
2023/11/28 16:26:02;;;;;;;3.47;2.85;;;0.50;99.90;;;;;;4971828;28;20218;-71
2023/11/28 16:28:28;;;;;;;3.45;2.72;;;0.50;99.90;;;;;;4972351;28;20219;-71
2023/11/28 16:30:56;;;;;;;4.57;3.60;;;0.50;99.90;;;;;;4972192;28;20239;-71
2023/11/28 16:33:23;;;;;;;5.13;3.30;;;0.50;99.90;;;;;;4966940;28;20699;-71
2023/11/28 16:35:50;;;;;;;3.75;3.45;;;0.50;99.90;;;;;;4974163;28;20208;-72
2023/11/28 16:38:18;;;;;;;3.88;3.40;;;0.50;99.90;;;;;;4980735;28;20264;-72
2023/11/28 16:40:46;;;;;;;2.80;2.50;;;0.50;99.90;;;;;;4979520;28;20230;-71
2023/11/28 16:43:13;;;;;;;4.45;3.40;;;0.50;99.90;;;;;;4970702;28;20601;-71
2023/11/28 16:45:40;;;;;;;3.35;3.05;;;0.50;99.90;;;;;;4972112;28;20203;-71
2023/11/28 16:48:07;;;;;;;3.42;3.13;;;0.40;99.90;;;;;;4959586;28;20224;-72
2023/11/28 16:50:34;;;;;;;4.97;3.47;;;0.40;99.90;;;;;;4967662;28;20217;-72
2023/11/28 16:53:02;;;;;;;4.50;3.75;;;0.30;99.90;;;;;;4971291;28;20307;-72
2023/11/28 16:55:29;;;;;;;5.38;3.85;;;0.20;99.90;;;;;;4971470;28;20295;-72
2023/11/28 16:57:57;;;;;;;6.18;3.25;;;0.20;99.90;;;;;;4971001;28;20204;-72
2023/11/28 17:00:24;;;;;;;7.70;3.85;;;0.10;99.90;;;;;;4971282;28;20204;-71
2023/11/28 17:02:51;;;;;;;3.85;3.40;;;0.10;99.90;;;;;;4971227;28;20212;-71
2023/11/28 17:05:20;;;;;;;7.68;4.18;;;0.10;99.90;;;;;;4971441;28;20582;-73
2023/11/28 17:07:47;;;;;;;3.63;3.25;;;0.10;99.90;;;;;;4972249;28;20709;-72
2023/11/28 17:10:15;;;;;;;4.45;2.83;;;0.10;99.90;;;;;;4972300;28;20693;-71
2023/11/28 17:12:45;;;;;;;6.45;4.00;;;0.10;99.90;;;;;;4973031;28;20220;-71
2023/11/28 17:15:13;;;;;;;5.68;3.55;;;0.10;99.90;;;;;;4970840;28;20649;-71
2023/11/28 17:17:40;;;;;;;4.38;3.78;;;0.10;99.90;;;;;;4970925;28;20210;-71
2023/11/28 17:20:08;;;;;;;3.78;3.47;;;0.10;99.90;;;;;;4970923;28;20226;-71